createdAt,value
2018-09-17T00:00:02.557Z,0
2018-09-17T00:05:02.817Z,0
2018-09-17T00:10:03.588Z,0
2018-09-17T00:15:03.225Z,0
2018-09-17T00:20:02.966Z,0
2018-09-17T00:25:02.917Z,0
2018-09-17T00:30:03.580Z,0
2018-09-17T00:35:03.281Z,0
2018-09-17T00:40:03.047Z,0
2018-09-17T00:45:02.668Z,0
2018-09-17T00:50:03.323Z,0
2018-09-17T00:55:02.936Z,0
2018-09-17T01:00:02.597Z,0
2018-09-17T01:05:03.463Z,0
2018-09-17T01:10:03.219Z,0
2018-09-17T01:15:02.841Z,0
2018-09-17T01:20:02.562Z,0
2018-09-17T01:25:03.238Z,0
2018-09-17T01:30:02.789Z,0
2018-09-17T01:35:03.292Z,0
2018-09-17T01:40:02.999Z,0
2018-09-17T01:45:02.562Z,0
2018-09-17T01:50:03.189Z,0
2018-09-17T01:55:02.932Z,0
2018-09-17T02:00:02.577Z,0
2018-09-17T02:05:03.171Z,0
2018-09-17T02:10:03.043Z,0
2018-09-17T02:15:02.816Z,0
2018-09-17T02:20:03.463Z,0
2018-09-17T02:25:03.048Z,0
2018-09-17T02:30:02.648Z,0
2018-09-17T02:35:03.306Z,0
2018-09-17T02:40:02.974Z,0
2018-09-17T02:45:02.642Z,0
2018-09-17T02:50:03.304Z,0
2018-09-17T02:55:02.852Z,0
2018-09-17T03:00:03.386Z,0
2018-09-17T03:05:02.774Z,0
2018-09-17T03:10:03.472Z,0
2018-09-17T03:15:03.129Z,0
2018-09-17T03:20:02.817Z,0
2018-09-17T03:25:03.347Z,0
2018-09-17T03:30:02.960Z,0
2018-09-17T03:35:02.588Z,0
2018-09-17T03:40:03.228Z,0
2018-09-17T03:45:02.781Z,0
2018-09-17T03:50:03.407Z,0
2018-09-17T03:55:03.027Z,0
2018-09-17T04:00:02.632Z,0
2018-09-17T04:05:03.227Z,0
2018-09-17T04:10:02.915Z,0
2018-09-17T04:15:03.471Z,0
2018-09-17T04:20:03.000Z,0
2018-09-17T04:25:02.612Z,0
2018-09-17T04:30:03.060Z,0
2018-09-17T04:35:02.638Z,0
2018-09-17T04:40:03.383Z,0
2018-09-17T04:45:03.030Z,0
2018-09-17T04:50:02.667Z,0
2018-09-17T04:55:03.190Z,0
2018-09-17T05:00:02.849Z,0
2018-09-17T05:05:03.439Z,0
2018-09-17T05:10:03.095Z,0
2018-09-17T05:15:02.669Z,0
2018-09-17T05:20:03.331Z,0
2018-09-17T05:25:02.858Z,0
2018-09-17T05:30:03.456Z,0
2018-09-17T05:35:03.559Z,0
2018-09-17T05:40:03.661Z,0
2018-09-17T05:45:03.261Z,0
2018-09-17T05:50:02.813Z,0
2018-09-17T05:55:03.399Z,0
2018-09-17T06:00:03.367Z,0
2018-09-17T06:05:03.096Z,0
2018-09-17T06:10:02.759Z,0
2018-09-17T06:15:03.470Z,0
2018-09-17T06:20:03.149Z,0
2018-09-17T06:25:02.706Z,0
2018-09-17T06:30:03.333Z,0
2018-09-17T06:35:02.940Z,0
2018-09-17T06:40:02.735Z,0
2018-09-17T06:45:03.786Z,0
2018-09-17T06:50:02.581Z,0
2018-09-17T06:55:03.204Z,0
2018-09-17T07:00:03.273Z,0
2018-09-17T07:05:02.911Z,0
2018-09-17T07:10:03.502Z,0
2018-09-17T07:15:03.064Z,2
2018-09-17T07:20:02.764Z,2
2018-09-17T07:25:03.370Z,2
2018-09-17T07:30:03.338Z,2
2018-09-17T07:35:03.004Z,2
2018-09-17T07:40:02.734Z,3
2018-09-17T07:45:03.556Z,2
2018-09-17T07:50:03.346Z,2
2018-09-17T07:55:02.976Z,2
2018-09-17T08:00:02.650Z,2
2018-09-17T08:05:03.239Z,2
2018-09-17T08:10:02.919Z,2
2018-09-17T08:15:02.535Z,4
2018-09-17T08:20:03.201Z,0
2018-09-17T08:25:02.811Z,2
2018-09-17T08:30:03.577Z,1
2018-09-17T08:35:03.358Z,2
2018-09-17T08:40:03.037Z,0
2018-09-17T08:45:02.682Z,2
2018-09-17T08:50:03.313Z,2
2018-09-17T08:55:02.972Z,0
2018-09-17T09:00:02.545Z,0
2018-09-17T09:05:03.471Z,0
2018-09-17T09:10:03.319Z,3
2018-09-17T09:15:02.875Z,1
2018-09-17T09:20:03.546Z,2
2018-09-17T09:25:03.259Z,3
2018-09-17T09:30:02.899Z,3
2018-09-17T09:35:03.490Z,5
2018-09-17T09:40:03.180Z,4
2018-09-17T09:45:02.866Z,2
2018-09-17T09:50:03.529Z,3
2018-09-17T09:55:03.126Z,3
2018-09-17T10:00:02.728Z,4
2018-09-17T10:05:03.449Z,4
2018-09-17T10:10:03.056Z,2
2018-09-17T10:15:02.727Z,3
2018-09-17T10:20:03.365Z,5
2018-09-17T10:25:02.959Z,2
2018-09-17T10:30:03.911Z,2
2018-09-17T10:35:02.724Z,1
2018-09-17T10:40:03.387Z,5
2018-09-17T10:45:03.010Z,5
2018-09-17T10:50:02.553Z,2
2018-09-17T10:55:03.185Z,4
2018-09-17T11:00:02.696Z,6
2018-09-17T11:05:03.296Z,6
2018-09-17T11:10:02.932Z,6
2018-09-17T11:15:03.503Z,3
2018-09-17T11:20:03.176Z,3
2018-09-17T11:25:03.063Z,4
2018-09-17T11:30:02.839Z,2
2018-09-17T11:35:03.505Z,2
2018-09-17T11:40:03.197Z,0
2018-09-17T11:45:02.848Z,5
2018-09-17T11:50:03.517Z,2
2018-09-17T11:55:03.192Z,3
2018-09-17T12:00:02.760Z,2
2018-09-17T12:05:03.411Z,4
2018-09-17T12:10:03.028Z,2
2018-09-17T12:15:02.663Z,7
2018-09-17T12:20:03.285Z,7
2018-09-17T12:25:02.914Z,3
2018-09-17T12:30:02.607Z,0
2018-09-17T12:35:03.180Z,2
2018-09-17T12:40:02.914Z,7
2018-09-17T12:45:02.544Z,7
2018-09-17T12:50:03.188Z,2
2018-09-17T12:55:02.830Z,1
2018-09-17T13:00:03.407Z,3
2018-09-17T13:05:03.074Z,2
2018-09-17T13:10:02.647Z,4
2018-09-17T13:15:03.192Z,4
2018-09-17T13:20:02.777Z,5
2018-09-17T13:25:04.093Z,0
2018-09-17T13:30:02.775Z,1
2018-09-17T13:35:03.323Z,0
2018-09-17T13:40:02.953Z,2
2018-09-17T13:45:03.552Z,1
2018-09-17T13:50:03.264Z,4
2018-09-17T13:55:02.902Z,2
2018-09-17T14:00:03.992Z,3
2018-09-17T14:05:02.720Z,0
2018-09-17T14:10:03.699Z,0
2018-09-17T14:15:03.519Z,0
2018-09-17T14:20:03.306Z,2
2018-09-17T14:25:02.945Z,2
2018-09-17T14:30:02.804Z,3
2018-09-17T14:35:03.438Z,0
2018-09-17T14:40:03.201Z,2
2018-09-17T14:45:03.203Z,4
2018-09-17T14:50:02.821Z,5
2018-09-17T14:55:03.603Z,3
2018-09-17T15:00:03.398Z,4
2018-09-17T15:05:02.985Z,1
2018-09-17T15:10:02.922Z,4
2018-09-17T15:15:03.420Z,0
2018-09-17T15:20:03.318Z,3
2018-09-17T15:25:03.064Z,2
2018-09-17T15:30:02.749Z,1
2018-09-17T15:35:03.427Z,1
2018-09-17T15:40:03.458Z,0
2018-09-17T15:45:03.406Z,2
2018-09-17T15:50:03.097Z,2
2018-09-17T15:55:02.855Z,2
2018-09-17T16:00:03.567Z,3
2018-09-17T16:05:03.509Z,2
2018-09-17T16:10:03.317Z,0
2018-09-17T16:15:02.907Z,2
2018-09-17T16:20:03.075Z,0
2018-09-17T16:25:03.031Z,0
2018-09-17T16:30:02.540Z,0
2018-09-17T16:35:03.127Z,0
2018-09-17T16:40:02.829Z,0
2018-09-17T16:45:03.418Z,0
2018-09-17T16:50:03.118Z,0
2018-09-17T16:55:02.685Z,0
2018-09-17T17:00:03.339Z,0
2018-09-17T17:05:03.314Z,0
2018-09-17T17:10:03.264Z,0
2018-09-17T17:15:02.973Z,0
2018-09-17T17:20:02.619Z,0
2018-09-17T17:25:03.270Z,0
2018-09-17T17:30:02.865Z,0
2018-09-17T17:35:03.532Z,0
2018-09-17T17:40:03.824Z,0
2018-09-17T17:45:02.560Z,0
2018-09-17T17:50:03.195Z,0
2018-09-17T17:55:02.872Z,0
2018-09-17T18:00:03.492Z,0
2018-09-17T18:05:03.129Z,0
2018-09-17T18:10:02.824Z,0
2018-09-17T18:15:03.485Z,0
2018-09-17T18:20:03.165Z,0
2018-09-17T18:25:02.829Z,0
2018-09-17T18:30:03.437Z,0
2018-09-17T18:35:02.985Z,0
2018-09-17T18:40:02.693Z,0
2018-09-17T18:45:03.690Z,0
2018-09-17T18:50:03.453Z,0
2018-09-17T18:55:03.065Z,0
2018-09-17T19:00:02.799Z,0
2018-09-17T19:05:03.543Z,0
2018-09-17T19:10:03.288Z,0
2018-09-17T19:15:02.950Z,0
2018-09-17T19:20:03.002Z,0
2018-09-17T19:25:02.872Z,0
2018-09-17T19:30:03.898Z,0
2018-09-17T19:35:02.637Z,0
2018-09-17T19:40:03.752Z,0
2018-09-17T19:45:03.573Z,0
2018-09-17T19:50:03.859Z,0
2018-09-17T19:55:02.930Z,0
2018-09-17T20:00:02.692Z,0
2018-09-17T20:05:03.471Z,0
2018-09-17T20:10:03.926Z,0
2018-09-17T20:15:02.751Z,0
2018-09-17T20:20:03.448Z,0
2018-09-17T20:25:03.067Z,0
2018-09-17T20:30:02.729Z,0
2018-09-17T20:35:03.251Z,0
2018-09-17T20:40:02.853Z,0
2018-09-17T20:45:03.507Z,0
2018-09-17T20:50:03.136Z,0
2018-09-17T20:55:02.964Z,0
2018-09-17T21:00:02.683Z,0
2018-09-17T21:05:03.382Z,0
2018-09-17T21:10:03.002Z,0
2018-09-17T21:15:03.529Z,0
2018-09-17T21:20:03.191Z,0
2018-09-17T21:25:03.359Z,0
2018-09-17T21:30:02.988Z,0
2018-09-17T21:35:02.723Z,0
2018-09-17T21:40:03.439Z,0
2018-09-17T21:45:02.985Z,0
2018-09-17T21:50:02.619Z,0
2018-09-17T21:55:03.307Z,0
2018-09-17T22:00:02.897Z,0
2018-09-17T22:05:03.391Z,0
2018-09-17T22:10:03.048Z,0
2018-09-17T22:15:02.644Z,0
2018-09-17T22:20:03.367Z,0
2018-09-17T22:25:02.931Z,0
2018-09-17T22:30:02.694Z,0
2018-09-17T22:35:03.522Z,0
2018-09-17T22:40:03.275Z,0
2018-09-17T22:45:02.972Z,0
2018-09-17T22:50:02.634Z,0
2018-09-17T22:55:03.281Z,0
2018-09-17T23:00:02.793Z,0
2018-09-17T23:05:02.805Z,0
2018-09-17T23:10:03.450Z,0
2018-09-17T23:15:03.104Z,0
2018-09-17T23:20:02.865Z,0
2018-09-17T23:25:03.485Z,0
2018-09-17T23:30:03.195Z,0
2018-09-17T23:35:02.930Z,0
2018-09-17T23:40:02.587Z,0
2018-09-17T23:45:03.253Z,0
2018-09-17T23:50:02.916Z,0
2018-09-17T23:55:02.592Z,0
